Bellingham International Airport
KBLI : now visible

Airfield :











YOU CAN JOIN US ON...

 
LOGIN :

Register | Disclaimer

   EN    FR    IT 

 









Legend :    VFR   Marginal VFR   IFR   Intensive IFR   Very Intensive IFR
Visi :
Ceiling :
>= 8 km
>= 3000ft
5 to 8 km
1000 to 3000 ft
1500m to 5 km
500 to 1000 ft
800 to 1500m
200 to 500 ft
< 800m
< 200 ft
Symbols :   Thunderstorms  Fog  Heavy snow  Heavy precipitations  Wind > 20 kt






- Airport Elevation : 170 ft
- IATA code : BLI


KBLI - Bellingham International

CURRENT METAR :
  • 110453Z 04005KT 4SM HZ OVC014 06/03 A3009 RMK AO2 RAE42 SLP197 P0002 T00560028

EXPIRED METARs :
  • 110446Z 04005KT 4SM HZ OVC014 06/02 A3009 RMK AO2 RAE42 P0002 T00560022
  • 110424Z 03005KT 2 1/2SM -RA OVC012 05/02 A3009 RMK AO2 P0002 T00500022
  • 110413Z 03004KT 3SM -RA OVC010 05/02 A3009 RMK AO2 P0001 T00500022
  • 110353Z 34004KT 2 1/2SM -RA OVC009 05/02 A3009 RMK AO2 RAB38 SLP200 P0000 T00500022
  • 110253Z 01003KT 5SM HZ OVC008 05/02 A3009 RMK AO2 RAE11 SLP199 P0001 60003 T00500022 58002

TAF KBLI
Valid from the 11 at 00:00 until the 12 at 00:00 UTC


110017Z 1100/1124 05005KT 4SM -RA BR SCT008 OVC020
TEMPO 1100/1103 2SM -RA BR BKN008 OVC015
FM110400 05005KT P6SM VCSH BKN015 OVC030
FM110800 05005KT P6SM OVC015
FM111500 12012KT P6SM BKN015 BKN050 OVC120
FM111800 16015G25KT P6SM SCT020 OVC050
FM112200 16015G25KT 5SM -RA BR OVC025



MET'MAP, your aeronautical weather chart ! - Copyright ORBIFLY December 2007 - Disclaimer

ORBIFLY MET'MAP TEAM :

Programming & Development : Alexandra Zaïnal
Concept & original design : Baudouin d'Aumeries
Assistance for programming : Marc-Olivier Méhu
Technical & hardware support : Manuel Goepfert

Contact : metmap@orbifly.com




SOURCES & CREDITS :

   NOAA       Earth
Advisory